• Join FlightAware (Why Join?)
  • Login
  • US Flag 
07:26PM EST


 

Airport Tracker/Info


-or-


 

Live Flight TrackerFlight Track Log ✈ UPS1081 ✈ 09-Jul-2013 ✈ KEWR - KSDF

Flight Track Log - Related Links

Times and Time Zones

All times are in EDT time to prevent confusion due to time zone crossing. See the UPS1081 flight status page for this flight to view local times or setup timezone preferences in your user account.

Time Position Orientation Groundspeed Altitude Reporting Facility
EDT Latitude Longitude Course Direction KTS MPH feet Rate Location/Type
11:39PM 40.6770 -74.1782 206° Southwest 169 194 500  Level FlightAware ADS-B
11:39PM 40.6712 -74.1816 204° Southwest 169 194 1,000 3,240 Climbing FlightAware ADS-B
11:39PM 40.6689 -74.1826 198° South 171 197 1,100 2,520 Climbing FlightAware ADS-B
11:39PM 40.6656 -74.1833 189° South 172 198 1,300 3,420 Climbing FlightAware ADS-B
11:39PM 40.6631 -74.1835 183° South 173 199 1,500 2,820 Climbing FlightAware ADS-B
11:40PM 40.6514 -74.1830 178° South 185 213 2,100 2,280 Climbing FlightAware ADS-B
11:40PM 40.6461 -74.1846 193° South 189 217 2,300 1,620 Climbing FlightAware ADS-B
11:40PM 40.6423 -74.1861 197° South 188 216 2,400 1,500 Climbing FlightAware ADS-B
11:40PM 40.6395 -74.1883 211° Southwest 196 226 2,500 1,980 Climbing FlightAware ADS-B
11:40PM 40.6355 -74.1929 221° Southwest 197 227 2,700 1,980 Climbing FlightAware ADS-B
11:40PM 40.6309 -74.2027 238° Southwest 211 243 3,000 1,800 Climbing FlightAware ADS-B
11:40PM 40.6303 -74.2078 261° West 219 252 3,100 1,680 Climbing FlightAware ADS-B
11:40PM 40.6300 -74.2119 264° West 225 259 3,200 1,320 Climbing FlightAware ADS-B
11:40PM 40.6298 -74.2189 268° West 232 267 3,300 2,700 Climbing FlightAware ADS-B
11:41PM 40.6297 -74.2475 270° West 252 290 4,300 3,180 Climbing FlightAware ADS-B
11:41PM 40.6290 -74.2646 267° West 257 296 4,900 3,420 Climbing FlightAware ADS-B
11:41PM 40.6274 -74.2882 265° West 261 300 5,800 3,360 Climbing FlightAware ADS-B
11:41PM 40.6273 -74.2898 265° West 262 302 5,800 3,420 Level FlightAware ADS-B
11:41PM 40.6256 -74.3105 264° West 265 305 6,600 3,960 Climbing FlightAware ADS-B
11:41PM 40.6253 -74.3137 263° West 266 306 6,800 3,840 Climbing FlightAware ADS-B
11:42PM 40.6231 -74.3380 263° West 269 310 7,700 3,480 Climbing FlightAware ADS-B
11:42PM 40.6229 -74.3412 265° West 267 307 7,800 3,480 Climbing FlightAware ADS-B
11:42PM 40.6206 -74.3658 263° West 272 313 8,700 3,600 Climbing FlightAware ADS-B
11:42PM 40.6181 -74.3907 262° West 277 319 9,600 3,360 Climbing FlightAware ADS-B
11:42PM 40.6170 -74.4042 264° West 281 323 10,000 2,160 Climbing FlightAware ADS-B
11:43PM 40.6164 -74.4488 269° West 271 312 10,800 1,860 Climbing FlightAware ADS-B
11:43PM 40.6165 -74.4565 271° West 316 364 10,900 1,620 Climbing FlightAware ADS-B
11:43PM 40.6185 -74.4840 275° West 335 386 11,300 1,560 Climbing FlightAware ADS-B
11:43PM 40.6217 -74.5088 280° West 352 405 11,600 1,200 Climbing FlightAware ADS-B
11:44PM 40.6265 -74.5483 279° West 375 432 11,900 2,160 Climbing FlightAware ADS-B
11:44PM 40.6345 -74.6195 278° West 386 444 13,400 2,820 Climbing FlightAware ADS-B
11:45PM 40.6424 -74.6900 278° West 395 455 14,800 2,760 Climbing FlightAware ADS-B
11:45PM 40.6501 -74.7621 278° West 402 463 16,200 2,640 Climbing FlightAware ADS-B
11:46PM 40.6576 -74.8332 278° West 411 473 17,400 2,460 Climbing FlightAware ADS-B
11:46PM 40.6611 -74.8886 275° West 416 479 18,300 2,520 Climbing FlightAware ADS-B
11:46PM 40.6615 -74.9392 271° West 419 482 19,200 2,400 Climbing FlightAware ADS-B
11:47PM 40.6592 -74.9907 267° West 427 491 19,900 2,160 Climbing FlightAware ADS-B
11:47PM 40.6552 -75.0322 263° West 432 497 20,500 2,100 Climbing FlightAware ADS-B
11:47PM 40.6473 -75.0865 259° West 437 503 21,200 2,280 Climbing FlightAware ADS-B
11:48PM 40.6358 -75.1409 254° West 442 509 22,100 2,280 Climbing FlightAware ADS-B
11:48PM 40.6261 -75.1791 252° West 445 512 22,600 2,100 Climbing FlightAware ADS-B
11:48PM 40.6106 -75.2268 247° West 448 516 23,300 2,100 Climbing FlightAware ADS-B
11:48PM 40.5914 -75.2784 244° Southwest 455 524 24,000 1,860 Climbing FlightAware ADS-B
11:49PM 40.5588 -75.3505 239° Southwest 462 532 24,900 1,680 Climbing FlightAware ADS-B
11:49PM 40.5249 -75.4232 238° Southwest 470 541 25,700 1,440 Climbing FlightAware ADS-B
11:50PM 40.4903 -75.4995 239° Southwest 478 550 26,400 1,440 Climbing FlightAware ADS-B
11:50PM 40.4548 -75.5744 238° Southwest 484 557 27,200 1,680 Climbing FlightAware ADS-B
11:51PM 40.4201 -75.6495 239° Southwest 483 556 28,100 1,860 Climbing FlightAware ADS-B
11:52PM 40.3823 -75.7319 239° Southwest 482 555 29,200 1,800 Climbing FlightAware ADS-B
11:52PM 40.3471 -75.8068 238° Southwest 482 555 30,000 1,560 Climbing FlightAware ADS-B
11:53PM 40.3119 -75.8839 239° Southwest 482 555 30,800 1,320 Climbing FlightAware ADS-B
11:53PM 40.2767 -75.9591 238° Southwest 489 563 31,400 1,140 Climbing FlightAware ADS-B
11:53PM 40.2573 -75.9997 238° Southwest 491 565 31,700 1,080 Climbing FlightAware ADS-B
11:53PM 40.2513 -76.0152 243° Southwest 491 565 31,800 900 Climbing FlightAware ADS-B
11:54PM 40.2449 -76.0344 246° West 489 563 31,900 1,260 Climbing FlightAware ADS-B
11:54PM 40.2218 -76.1177 250° West 491 565 32,600 1,260 Climbing FlightAware ADS-B
11:55PM 40.1988 -76.2015 250° West 490 564 33,200 1,020 Climbing FlightAware ADS-B
11:55PM 40.1746 -76.2910 251° West 493 567 33,700 720 Climbing FlightAware ADS-B
11:56PM 40.1507 -76.3749 250° West 498 573 34,000 300 Climbing FlightAware ADS-B
11:56PM 40.1268 -76.4597 250° West 498 573 34,000  Level FlightAware ADS-B
11:57PM 40.1033 -76.5441 250° West 494 568 34,000  Level FlightAware ADS-B
11:57PM 40.0801 -76.6309 251° West 490 564 34,000  Level FlightAware ADS-B
11:58PM 40.0572 -76.7138 250° West 487 560 34,000  Level FlightAware ADS-B
11:58PM 40.0343 -76.7968 250° West 487 560 34,000  Level FlightAware ADS-B
11:59PM 40.0101 -76.8852 250° West 490 564 34,000  Level FlightAware ADS-B
11:59PM 39.9842 -76.9769 250° West 492 566 34,000  Level FlightAware ADS-B
12:00AM 39.9592 -77.0663 250° West 493 567 34,000  Level FlightAware ADS-B
12:00AM 39.9328 -77.1584 250° West 494 568 34,000  Level FlightAware ADS-B
12:01AM 39.9091 -77.2422 250° West 494 568 34,000  Level FlightAware ADS-B
12:01AM 39.8806 -77.3451 250° West 494 568 34,000  Level FlightAware ADS-B
12:02AM 39.8555 -77.4312 249° West 493 567 34,000  Level FlightAware ADS-B
12:02AM 39.8317 -77.5144 250° West 493 567 34,000  Level FlightAware ADS-B
12:03AM 39.8068 -77.6031 250° West 490 564 34,000  Level FlightAware ADS-B
12:04AM 39.7550 -77.7850 250° West 490 564 34,000  Level FlightAware
12:05AM 39.7240 -77.8920 249° West 487 560 34,000  Level FlightAware
12:05AM 39.7093 -77.9411 249° West 487 560 34,000  Level FlightAware ADS-B
12:06AM 39.6834 -78.0288 249° West 487 560 34,000  Level FlightAware ADS-B
12:06AM 39.6586 -78.1133 249° West 487 560 34,000  Level FlightAware ADS-B
12:07AM 39.6323 -78.2037 249° West 488 562 34,000  Level FlightAware ADS-B
12:07AM 39.6001 -78.3158 250° West 489 563 34,000  Level FlightAware ADS-B
12:08AM 39.5717 -78.4112 249° West 484 557 34,000  Level FlightAware ADS-B
12:08AM 39.5478 -78.4915 249° West 477 549 34,000  Level FlightAware ADS-B
12:09AM 39.5010 -78.6510 249° West 475 547 34,000  Level FlightAware
12:10AM 39.4640 -78.7730 249° West 474 545 34,000  Level FlightAware
12:11AM 39.4450 -78.8360 249° West 474 545 34,000  Level FlightAware
12:11AM 39.4110 -78.9510 249° West 465 535 34,000  Level FlightAware
12:12AM 39.3780 -79.0590 248° West 461 531 34,000  Level FlightAware
12:13AM 39.3450 -79.1670 248° West 462 532 34,000  Level FlightAware
12:13AM 39.3190 -79.2530 249° West 466 536 34,000  Level FlightAware
12:14AM 39.2830 -79.3710 249° West 465 535 34,000  Level FlightAware
12:16AM 39.1740 -79.7260 248° West 468 539 34,000  Level FlightAware
12:17AM 39.1430 -79.8240 248° West 467 537 34,000  Level FlightAware
12:18AM 39.1060 -79.9430 248° West 472 543 34,000  Level FlightAware
12:18AM 39.0720 -80.0530 248° West 471 542 34,000  Level FlightAware
12:19AM 39.0390 -80.1540 247° West 472 543 34,000  Level FlightAware
12:20AM 39.0070 -80.2580 248° West 472 543 34,000  Level FlightAware
12:20AM 38.9740 -80.3620 248° West 472 543 34,000  Level FlightAware
12:21AM 38.9410 -80.4660 248° West 474 545 34,000  Level FlightAware
12:22AM 38.9090 -80.5650 247° West 478 550 34,000  Level FlightAware
12:22AM 38.8700 -80.6890 248° West 480 552 34,000  Level FlightAware
12:23AM 38.8390 -80.7840 247° West 481 554 34,000  Level FlightAware
12:24AM 38.8070 -80.8840 248° West 482 555 34,000  Level FlightAware
12:24AM 38.7680 -81.0060 248° West 479 551 34,000  Level FlightAware
12:25AM 38.7390 -81.1130 251° West 477 549 34,000  Level FlightAware
12:26AM 38.7100 -81.2250 252° West 480 552 34,000  Level FlightAware
12:26AM 38.6800 -81.3390 251° West 483 556 34,000  Level FlightAware
12:27AM 38.6500 -81.4500 251° West 484 557 34,000  Level FlightAware
12:28AM 38.6210 -81.5610 252° West 481 554 34,000  Level FlightAware
12:29AM 38.5930 -81.6650 251° West 477 549 34,000  Level FlightAware
12:29AM 38.5670 -81.7610 251° West 476 548 34,000  Level FlightAware
12:30AM 38.5350 -81.8810 251° West 475 547 34,000  Level FlightAware
12:30AM 38.5080 -81.9820 251° West 477 549 34,000  Level FlightAware
12:31AM 38.4770 -82.0930 250° West 475 547 34,000  Level FlightAware
12:32AM 38.4510 -82.1910 251° West 475 547 34,000  Level FlightAware
12:33AM 38.4170 -82.3150 251° West 472 543 34,000  Level FlightAware
12:33AM 38.3900 -82.4130 251° West 477 549 34,000  Level FlightAware
12:34AM 38.3590 -82.5243 250° West 479 551 34,000  Level FlightAware ADS-B
12:35AM 38.3260 -82.6440 251° West 476 548 34,000  Level FlightAware
12:35AM 38.3020 -82.7280 250° West 476 548 34,000  Level FlightAware
12:36AM 38.2680 -82.8490 250° West 476 548 34,000  Level FlightAware
12:37AM 38.2360 -82.9630 250° West 477 549 34,000  Level FlightAware
12:37AM 38.2070 -83.0690 251° West 477 549 34,000  Level FlightAware
12:38AM 38.1987 -83.0950 248° West 478 550 34,000  Level FlightAware ADS-B
12:38AM 38.1763 -83.1744 250° West 477 549 34,000 -180 Level FlightAware ADS-B
12:39AM 38.1448 -83.2874 251° West 477 549 33,800 -540 Descending FlightAware ADS-B
12:39AM 38.1214 -83.3671 250° West 481 554 33,400 -1,020 Descending FlightAware ADS-B
12:40AM 38.0978 -83.4493 250° West 484 557 32,800 -1,080 Descending FlightAware ADS-B
12:41AM 38.0617 -83.5753 250° West 487 560 32,000 -960 Descending FlightAware ADS-B
12:41AM 38.0212 -83.7176 250° West 484 557 31,200 -960 Descending FlightAware ADS-B
12:42AM 37.9961 -83.8021 249° West 479 551 30,700 -2,040 Descending FlightAware ADS-B
12:43AM 37.9639 -83.9124 250° West 479 551 28,700 -2,820 Descending FlightAware ADS-B
12:44AM 37.9243 -84.0486 250° West 461 531 26,300 -2,760 Descending FlightAware ADS-B
12:44AM 37.8959 -84.1472 250° West 461 531 24,500 -2,760 Descending FlightAware ADS-B
12:47AM 37.7800 -84.5360 249° West 411 473 17,200 -2,760 Descending FlightAware
12:47AM 37.7560 -84.6180 250° West 402 463 15,500 -1,980 Descending FlightAware
12:48AM 37.7300 -84.7060 250° West 399 459 14,600 -720 Descending FlightAware
12:49AM 37.7090 -84.7730 248° West 399 459 14,600 -2,280 Level FlightAware
12:50AM 37.6750 -84.8870 249° West 375 432 11,000 -2,040 Descending FlightAware
12:51AM 37.6490 -84.9710 249° West 375 432 11,000 -600 Level FlightAware
12:51AM 37.7460 -85.0770 319° Northwest 9,900 -960 Descending FlightAware
12:52AM 37.7750 -85.1170 313° West 372 428 9,900  Level FlightAware
12:52AM 37.7920 -85.1400 313° West 372 428 9,900  Level FlightAware
12:52AM 37.8230 -85.1830 312° West 370 426 9,900  Level FlightAware
12:53AM 37.8350 -85.2000 312° West 369 425 9,900  Level FlightAware
12:53AM 37.8710 -85.2500 312° West 367 422 9,900  Level FlightAware
12:54AM 37.9010 -85.2910 313° West 365 420 9,900 60 Level FlightAware
12:54AM 37.9310 -85.3330 312° West 327 376 10,000  Climbing FlightAware
12:55AM 37.9570 -85.3710 311° West 297 342 9,900 -780 Descending FlightAware
12:55AM 37.9830 -85.4060 313° West 289 333 9,300 -1,440 Descending FlightAware
12:56AM 38.0110 -85.4460 312° West 285 328 8,500 -1,560 Descending FlightAware
12:56AM 38.0320 -85.4760 312° West 283 326 7,900 -1,500 Descending FlightAware
12:56AM 38.0500 -85.5000 314° West 280 322 7,400 -1,500 Descending FlightAware
12:57AM 38.0720 -85.5320 311° West 277 319 6,800 -1,440 Descending FlightAware
12:57AM 38.0980 -85.5690 312° West 270 311 6,100 -1,380 Descending FlightAware
12:57AM 38.1070 -85.5800 316° Northwest 267 307 5,900 -1,380 Descending FlightAware
12:58AM 38.1290 -85.6000 324° Northwest 269 310 5,300 -1,440 Descending FlightAware
12:58AM 38.1580 -85.6100 345° North 270 311 4,700 -1,320 Descending FlightAware
12:58AM 38.1810 -85.6190 343° North 263 303 4,400 -960 Descending FlightAware
12:59AM 38.2170 -85.6310 345° North 247 284 4,000 -540 Descending FlightAware
12:59AM 38.2440 -85.6410 344° North 237 273 3,900 -120 Descending FlightAware
01:00AM 38.2740 -85.6520 344° North 234 269 3,900  Level FlightAware
01:00AM 38.2910 -85.6570 347° North 233 268 3,900 -180 Level FlightAware
01:01AM 38.3170 -85.6730 334° Northwest 212 244 3,800 -780 Descending FlightAware
01:01AM 38.3210 -85.6860 291° West 205 236 3,400 -1,200 Descending FlightAware
01:01AM 38.3200 -85.7190 268° West 191 220 3,000 -720 Descending FlightAware
01:02AM 38.3170 -85.7350 257° West 178 205 2,900 -240 Descending FlightAware
01:02AM 38.3100 -85.7430 222° Southwest 169 194 2,900 -480 Level FlightAware
01:02AM 38.2900 -85.7530 201° Southwest 157 181 2,600 -780 Descending FlightAware
01:03AM 38.2710 -85.7600 196° South 161 185 2,200 -1,020 Descending FlightAware
01:03AM 38.2530 -85.7540 165° South 142 163 1,700 -900 Descending FlightAware
01:04AM 38.2350 -85.7480 165° South 127 146 1,400 -660 Descending FlightAware
01:04AM 38.2190 -85.7420 164° South 127 146 1,100 -600 Descending FlightAware
01:04AM 38.2120 -85.7400 167° South 126 145 1,000 -780 Descending FlightAware
01:05AM 38.1950 -85.7340 164° South 129 148 600 -840 Descending FlightAware
01:05AM 38.1810 -85.7290 164° South 125 144 -1,440 Descending FlightAware
01:06AM 38.1660 -85.7240 165° South 82 94  Level FlightAware
01:07AM 38.1720 -85.7280 332° Northwest 23 26  Level FlightAware
01:08AM 38.1770 -85.7370 305° West 36 41  Level FlightAware
01:08AM 38.1780 -85.7410 288° West 32 37  Level FlightAware
01:09AM 38.1770 -85.7430 238° Southwest 21 24  Level FlightAware
01:10AM 38.1740 -85.7420 165° South 26 30  Level FlightAware
01:10AM 38.1710 -85.7410 165° South 28 32  Level FlightAware